createdAt,value
2018-06-03T00:01:05.795Z,99903.87
2018-06-03T00:05:08.287Z,99916.11
2018-06-03T00:09:10.753Z,99918.59
2018-06-03T00:13:13.283Z,99926.19
2018-06-03T00:17:15.772Z,99924.33
2018-06-03T00:21:30.813Z,99923.37
2018-06-03T00:25:33.285Z,99924.71
2018-06-03T00:29:35.782Z,99917.69
2018-06-03T00:33:38.245Z,99916.86
2018-06-03T00:37:40.743Z,99921.84
2018-06-03T00:41:43.198Z,99921.42
2018-06-03T00:45:45.675Z,99919.30
2018-06-03T00:49:48.170Z,99934.20
2018-06-03T00:53:50.648Z,99927.55
2018-06-03T00:57:53.133Z,99932.05
2018-06-03T01:01:55.595Z,99934.72
2018-06-03T01:05:58.087Z,99941.39
2018-06-03T01:10:00.569Z,99935.17
2018-06-03T01:14:03.036Z,99935.22
2018-06-03T01:18:05.533Z,99932.72
2018-06-03T01:22:08.022Z,99929.62
2018-06-03T01:26:10.512Z,99919.36
2018-06-03T01:30:12.992Z,99919.36
2018-06-03T01:34:15.500Z,99913.52
2018-06-03T01:38:17.956Z,99906.91
2018-06-03T01:42:20.430Z,99912.50
2018-06-03T01:46:22.943Z,99913.69
2018-06-03T01:50:25.384Z,99910.64
2018-06-03T01:54:27.863Z,99907.52
2018-06-03T01:58:30.351Z,99905.38
2018-06-03T02:02:32.846Z,99901.00
2018-06-03T02:06:35.303Z,99902.03
2018-06-03T02:10:37.782Z,99904.47
2018-06-03T02:14:40.270Z,99904.18
2018-06-03T02:18:42.757Z,99907.02
2018-06-03T02:22:45.203Z,99904.85
2018-06-03T02:26:47.683Z,99906.24
2018-06-03T02:30:50.142Z,99906.67
2018-06-03T02:34:52.630Z,99900.88
2018-06-03T02:38:55.108Z,99901.00
2018-06-03T02:42:57.571Z,99904.28
2018-06-03T02:47:00.081Z,99898.30
2018-06-03T02:51:02.568Z,99905.31
2018-06-03T02:55:05.017Z,99896.16
2018-06-03T02:59:07.511Z,99898.61
2018-06-03T03:03:09.991Z,99908.09
2018-06-03T03:07:12.471Z,99902.87
2018-06-03T03:11:14.964Z,99902.63
2018-06-03T03:15:17.446Z,99908.46
2018-06-03T03:19:19.945Z,99902.79
2018-06-03T03:23:22.423Z,99907.86
2018-06-03T03:27:24.903Z,99910.18
2018-06-03T03:31:27.409Z,99914.74
2018-06-03T03:35:29.866Z,99920.75
2018-06-03T03:40:16.591Z,99922.80
2018-06-03T03:44:20.036Z,99919.91
2018-06-03T03:48:23.467Z,99917.81
2018-06-03T03:52:26.875Z,99924.09
2018-06-03T03:56:30.320Z,99918.35
2018-06-03T04:00:33.750Z,99929.06
2018-06-03T04:04:37.135Z,99928.92
2018-06-03T04:08:40.556Z,99930.67
2018-06-03T04:12:43.992Z,99933.78
2018-06-03T04:16:47.454Z,99929.28
2018-06-03T04:20:50.893Z,99935.50
2018-06-03T04:24:54.292Z,99933.63
2018-06-03T04:28:57.741Z,99943.42
2018-06-03T04:33:01.202Z,99945.03
2018-06-03T04:37:04.635Z,99939.56
2018-06-03T04:41:08.072Z,99950.16
2018-06-03T04:45:11.517Z,99961.95
2018-06-03T04:49:14.972Z,99963.87
2018-06-03T04:53:18.450Z,99960.06
2018-06-03T04:57:21.901Z,99967.00
2018-06-03T05:01:25.368Z,99972.48
2018-06-03T05:05:28.855Z,99985.98
2018-06-03T05:09:32.286Z,99977.42
2018-06-03T05:13:35.751Z,99967.98
2018-06-03T05:17:39.182Z,99983.08
2018-06-03T05:21:42.636Z,99979.06
2018-06-03T05:25:46.131Z,99979.19
2018-06-03T05:29:49.609Z,99982.00
2018-06-03T05:33:53.036Z,99977.75
2018-06-03T05:37:56.524Z,99972.08
2018-06-03T05:41:59.947Z,99972.85
2018-06-03T05:46:03.464Z,99971.48
2018-06-03T05:50:06.943Z,99975.90
2018-06-03T05:54:10.458Z,99979.97
2018-06-03T05:58:13.922Z,99979.63
2018-06-03T06:02:17.358Z,99985.52
2018-06-03T06:06:20.796Z,99983.48
2018-06-03T06:10:24.256Z,99991.23
2018-06-03T06:14:27.715Z,99991.81
2018-06-03T06:18:31.169Z,99997.84
2018-06-03T06:22:34.631Z,99991.45
2018-06-03T06:26:38.051Z,99987.66
2018-06-03T06:30:41.539Z,99993.92
2018-06-03T06:34:44.987Z,99997.18
2018-06-03T06:38:48.436Z,99996.75
2018-06-03T06:42:51.873Z,99998.59
2018-06-03T06:46:56.331Z,100002.41
2018-06-03T06:50:59.788Z,99999.08
2018-06-03T06:55:03.243Z,100000.20
2018-06-03T06:59:06.696Z,100004.47
2018-06-03T07:03:10.134Z,100003.53
2018-06-03T07:07:13.558Z,99999.96
2018-06-03T07:11:16.978Z,100001.53
2018-06-03T07:15:20.434Z,100006.61
2018-06-03T07:19:23.904Z,100017.27
2018-06-03T07:23:27.306Z,100015.72
2018-06-03T07:27:30.753Z,100008.90
2018-06-03T07:31:34.219Z,100009.67
2018-06-03T07:35:37.635Z,100012.31
2018-06-03T07:39:41.058Z,100003.92
2018-06-03T07:43:44.512Z,99992.72
2018-06-03T07:47:47.982Z,100003.44
2018-06-03T07:51:51.384Z,100000.23
2018-06-03T07:55:54.851Z,100001.31
2018-06-03T07:59:58.300Z,99995.45
2018-06-03T08:04:01.728Z,99990.30
2018-06-03T08:08:05.211Z,99997.41
2018-06-03T08:12:08.621Z,99983.73
2018-06-03T08:16:12.095Z,99984.92
2018-06-03T08:20:15.556Z,99990.34
2018-06-03T08:24:18.969Z,99993.73
2018-06-03T08:28:22.418Z,99993.45
2018-06-03T08:32:25.867Z,100004.36
2018-06-03T08:36:29.303Z,100001.66
2018-06-03T08:40:32.763Z,99998.91
2018-06-03T08:44:36.179Z,99997.59
2018-06-03T08:48:39.645Z,99998.36
2018-06-03T08:52:43.120Z,100001.42
2018-06-03T08:56:46.542Z,99992.24
2018-06-03T09:00:50.359Z,99994.82
2018-06-03T09:04:53.782Z,99992.30
2018-06-03T09:08:57.225Z,99999.05
2018-06-03T09:13:00.676Z,99991.66
2018-06-03T09:17:04.166Z,99985.80
2018-06-03T09:21:07.603Z,99982.81
2018-06-03T09:25:11.069Z,99985.42
2018-06-03T09:29:14.487Z,99984.73
2018-06-03T09:33:17.916Z,99977.86
2018-06-03T09:37:21.345Z,99969.46
2018-06-03T09:41:24.768Z,99966.70
2018-06-03T09:45:28.221Z,99961.73
2018-06-03T09:49:31.687Z,99966.33
2018-06-03T09:53:35.129Z,99957.88
2018-06-03T09:57:38.576Z,99955.91
2018-06-03T10:01:42.005Z,99950.09
2018-06-03T10:05:45.434Z,99953.30
2018-06-03T10:09:48.867Z,99951.40
2018-06-03T10:13:52.274Z,99950.42
2018-06-03T10:17:55.736Z,99955.75
2018-06-03T10:21:59.181Z,99948.64
2018-06-03T10:26:02.639Z,99936.78
2018-06-03T10:30:06.132Z,99934.16
2018-06-03T10:34:09.588Z,99930.70
2018-06-03T10:38:13.024Z,99921.30
2018-06-03T10:42:16.446Z,99915.17
2018-06-03T10:46:19.879Z,99912.64
2018-06-03T10:50:23.338Z,99902.53
2018-06-03T10:54:26.822Z,99890.02
2018-06-03T10:58:30.180Z,99888.70
2018-06-03T11:02:33.623Z,99876.30
2018-06-03T11:06:37.067Z,99870.04
2018-06-03T11:10:40.522Z,99862.98
2018-06-03T11:14:43.955Z,99865.80
2018-06-03T11:18:47.413Z,99856.97
2018-06-03T11:22:50.910Z,99854.06
2018-06-03T11:26:54.386Z,99847.20
2018-06-03T11:30:57.838Z,99843.31
2018-06-03T11:35:01.259Z,99838.00
2018-06-03T11:39:07.874Z,99826.73
2018-06-03T11:43:11.314Z,99840.23
2018-06-03T11:47:18.648Z,99837.80
2018-06-03T11:51:22.063Z,99829.24
2018-06-03T11:55:25.495Z,99822.56
2018-06-03T11:59:40.588Z,99820.11
2018-06-03T12:03:44.033Z,99827.30
2018-06-03T12:07:47.453Z,99823.06
2018-06-03T12:11:50.925Z,99818.42
2018-06-03T12:15:54.437Z,99813.05
2018-06-03T12:19:57.888Z,99815.10
2018-06-03T12:24:01.396Z,99812.50
2018-06-03T12:28:04.854Z,99810.50
2018-06-03T12:32:08.347Z,99799.05
2018-06-03T12:36:11.792Z,99795.16
2018-06-03T12:40:15.335Z,99793.63
2018-06-03T12:44:18.836Z,99785.91
2018-06-03T12:48:22.319Z,99781.23
2018-06-03T12:52:25.772Z,99776.00
2018-06-03T12:56:29.212Z,99770.70
2018-06-03T13:00:32.659Z,99767.75
2018-06-03T13:04:36.078Z,99767.03
2018-06-03T13:08:39.471Z,99758.48
2018-06-03T13:12:42.905Z,99758.50
2018-06-03T13:16:46.356Z,99759.80
2018-06-03T13:20:49.772Z,99750.36
2018-06-03T13:24:53.203Z,99749.10
2018-06-03T13:28:56.646Z,99749.37
2018-06-03T13:33:00.090Z,99751.20
2018-06-03T13:37:03.521Z,99744.29
2018-06-03T13:41:06.979Z,99743.06
2018-06-03T13:45:10.438Z,99732.28
2018-06-03T13:49:13.922Z,99732.06
2018-06-03T13:53:17.349Z,99734.98
2018-06-03T13:57:20.796Z,99738.55
2018-06-03T14:01:24.326Z,99736.03
2018-06-03T14:05:27.835Z,99737.08
2018-06-03T14:09:31.271Z,99728.67
2018-06-03T14:13:34.723Z,99724.75
2018-06-03T14:17:38.173Z,99718.86
2018-06-03T14:21:41.608Z,99715.62
2018-06-03T14:25:45.037Z,99702.52
2018-06-03T14:29:48.495Z,99705.14
2018-06-03T14:33:52.004Z,99703.51
2018-06-03T14:37:55.425Z,99694.15
2018-06-03T14:41:58.893Z,99685.06
2018-06-03T14:46:02.356Z,99672.44
2018-06-03T14:50:05.791Z,99667.27
2018-06-03T14:54:09.236Z,99669.58
2018-06-03T14:58:12.675Z,99669.02
2018-06-03T15:02:16.250Z,99668.74
2018-06-03T15:06:19.695Z,99663.09
2018-06-03T15:10:23.139Z,99663.69
2018-06-03T15:14:26.571Z,99664.77
2018-06-03T15:18:30.058Z,99662.52
2018-06-03T15:22:33.513Z,99661.38
2018-06-03T15:26:36.976Z,99665.05
2018-06-03T15:30:40.423Z,99659.63
2018-06-03T15:34:43.849Z,99660.09
2018-06-03T15:38:47.314Z,99661.87
2018-06-03T15:42:50.723Z,99657.06
2018-06-03T15:46:54.160Z,99651.50
2018-06-03T15:50:57.593Z,99646.30
2018-06-03T15:55:01.050Z,99641.38
2018-06-03T15:59:04.495Z,99645.16
2018-06-03T16:03:08.020Z,99643.31
2018-06-03T16:07:11.463Z,99643.91
2018-06-03T16:11:14.863Z,99649.06
2018-06-03T16:15:18.355Z,99650.03
2018-06-03T16:19:21.840Z,99663.41
2018-06-03T16:23:25.355Z,99660.16
2018-06-03T16:27:28.894Z,99664.58
2018-06-03T16:31:32.353Z,99654.05
2018-06-03T16:35:35.781Z,99656.10
2018-06-03T16:39:39.275Z,99657.27
2018-06-03T16:43:43.236Z,99657.79
2018-06-03T16:47:46.742Z,99659.09
2018-06-03T16:51:50.241Z,99653.50
2018-06-03T16:55:53.697Z,99654.84
2018-06-03T16:59:57.220Z,99651.59
2018-06-03T17:04:00.674Z,99655.14
2018-06-03T17:08:04.144Z,99653.28
2018-06-03T17:12:07.609Z,99661.34
2018-06-03T17:16:11.167Z,99652.68
2018-06-03T17:20:14.664Z,99654.23
2018-06-03T17:24:18.062Z,99660.23
2018-06-03T17:28:21.656Z,99656.09
2018-06-03T17:32:25.454Z,99659.49
2018-06-03T17:36:28.857Z,99661.18
2018-06-03T17:40:32.332Z,99668.73
2018-06-03T17:44:36.788Z,99662.44
2018-06-03T17:48:40.223Z,99667.52
2018-06-03T17:52:43.638Z,99665.14
2018-06-03T17:56:47.111Z,99668.33
2018-06-03T18:00:50.566Z,99667.76
2018-06-03T18:04:54.252Z,99661.03
2018-06-03T18:08:57.695Z,99662.41
2018-06-03T18:13:01.216Z,99654.52
2018-06-03T18:17:04.753Z,99656.44
2018-06-03T18:21:08.186Z,99652.50
2018-06-03T18:25:11.671Z,99655.77
2018-06-03T18:29:15.159Z,99650.96
2018-06-03T18:33:18.632Z,99651.46
2018-06-03T18:37:22.057Z,99653.77
2018-06-03T18:41:25.523Z,99662.44
2018-06-03T18:45:28.960Z,99664.92
2018-06-03T18:49:32.744Z,99673.99
2018-06-03T18:53:36.150Z,99681.95
2018-06-03T18:57:39.655Z,99686.55
2018-06-03T19:01:43.069Z,99689.14
2018-06-03T19:05:46.483Z,99694.53
2018-06-03T19:09:49.909Z,99695.86
2018-06-03T19:13:53.359Z,99708.26
2018-06-03T19:17:56.789Z,99707.75
2018-06-03T19:22:00.200Z,99709.36
2018-06-03T19:26:03.742Z,99712.44
2018-06-03T19:30:07.136Z,99717.72
2018-06-03T19:34:10.577Z,99720.95
2018-06-03T19:38:14.012Z,99724.02
2018-06-03T19:42:17.438Z,99722.16
2018-06-03T19:46:20.880Z,99724.67
2018-06-03T19:50:24.363Z,99722.02
2018-06-03T19:54:27.815Z,99726.03
2018-06-03T19:58:31.297Z,99738.48
2018-06-03T20:02:34.752Z,99725.83
2018-06-03T20:06:38.216Z,99731.58
2018-06-03T20:10:41.699Z,99729.86
2018-06-03T20:14:45.160Z,99731.23
2018-06-03T20:18:48.629Z,99738.98
2018-06-03T20:22:52.138Z,99735.05
2018-06-03T20:26:55.559Z,99744.73
2018-06-03T20:30:58.987Z,99736.20
2018-06-03T20:35:02.413Z,99727.20
2018-06-03T20:39:07.179Z,99721.28
2018-06-03T20:43:10.612Z,99724.69
2018-06-03T20:47:14.055Z,99726.27
2018-06-03T20:51:17.463Z,99720.66
2018-06-03T20:55:20.901Z,99723.91
2018-06-03T20:59:24.317Z,99730.00
2018-06-03T21:03:27.759Z,99728.81
2018-06-03T21:07:31.215Z,99725.08
2018-06-03T21:11:34.779Z,99725.27
2018-06-03T21:15:38.232Z,99723.25
2018-06-03T21:19:41.736Z,99723.00
2018-06-03T21:23:45.192Z,99724.11
2018-06-03T21:27:48.647Z,99725.60
2018-06-03T21:31:52.094Z,99726.86
2018-06-03T21:35:55.569Z,99730.19
2018-06-03T21:39:59.039Z,99724.17
2018-06-03T21:44:02.456Z,99720.36
2018-06-03T21:48:05.950Z,99714.28
2018-06-03T21:52:09.402Z,99715.88
2018-06-03T21:56:12.847Z,99711.92
2018-06-03T22:00:16.309Z,99700.45
2018-06-03T22:04:19.748Z,99705.64
2018-06-03T22:08:23.196Z,99701.22
2018-06-03T22:12:26.633Z,99701.91
2018-06-03T22:16:30.073Z,99702.16
2018-06-03T22:20:33.548Z,99699.80
2018-06-03T22:24:36.975Z,99695.50
2018-06-03T22:28:40.417Z,99697.47
2018-06-03T22:32:43.907Z,99701.25
2018-06-03T22:36:47.331Z,99703.14
2018-06-03T22:40:50.769Z,99707.38
2018-06-03T22:44:54.222Z,99702.56
2018-06-03T22:48:57.764Z,99702.16
2018-06-03T22:53:01.211Z,99703.63
2018-06-03T22:58:08.228Z,99701.91
2018-06-03T23:02:11.654Z,99693.20
2018-06-03T23:06:15.110Z,99694.69
2018-06-03T23:10:18.566Z,99689.88
2018-06-03T23:14:22.050Z,99684.33
2018-06-03T23:18:25.460Z,99689.90
2018-06-03T23:22:28.961Z,99684.67
2018-06-03T23:26:32.428Z,99690.52
2018-06-03T23:30:35.824Z,99682.30
2018-06-03T23:34:39.269Z,99679.61
2018-06-03T23:38:42.751Z,99682.84
2018-06-03T23:42:46.363Z,99675.92
2018-06-03T23:46:49.768Z,99674.95
2018-06-03T23:50:53.195Z,99678.15
2018-06-03T23:54:56.643Z,99676.46
2018-06-03T23:59:00.090Z,99679.89
